sensor_id;sensor_type;location;lat;lon;timestamp;temperature;humidity
30308;DHT22;17114;52.314;8.910;2023-08-06T00:01:01;14.40;99.90
30308;DHT22;17114;52.314;8.910;2023-08-06T00:03:28;14.40;99.90
30308;DHT22;17114;52.314;8.910;2023-08-06T00:05:55;14.40;99.90
30308;DHT22;17114;52.314;8.910;2023-08-06T00:08:22;14.40;99.90
30308;DHT22;17114;52.314;8.910;2023-08-06T00:10:49;14.40;99.90
30308;DHT22;17114;52.314;8.910;2023-08-06T00:13:16;14.40;99.90
30308;DHT22;17114;52.314;8.910;2023-08-06T00:15:44;14.50;99.90
30308;DHT22;17114;52.314;8.910;2023-08-06T00:18:11;14.50;99.90
30308;DHT22;17114;52.314;8.910;2023-08-06T00:20:41;14.50;99.90
30308;DHT22;17114;52.314;8.910;2023-08-06T00:23:08;14.50;99.90
30308;DHT22;17114;52.314;8.910;2023-08-06T00:25:36;14.50;99.90
30308;DHT22;17114;52.314;8.910;2023-08-06T00:28:03;14.50;99.90
30308;DHT22;17114;52.314;8.910;2023-08-06T00:30:31;14.50;99.90
30308;DHT22;17114;52.314;8.910;2023-08-06T00:32:58;14.50;99.90
30308;DHT22;17114;52.314;8.910;2023-08-06T00:35:25;14.50;99.90
30308;DHT22;17114;52.314;8.910;2023-08-06T00:37:52;14.50;99.90
30308;DHT22;17114;52.314;8.910;2023-08-06T00:40:20;14.50;99.90
30308;DHT22;17114;52.314;8.910;2023-08-06T00:42:48;14.50;99.90
30308;DHT22;17114;52.314;8.910;2023-08-06T00:45:15;14.50;99.90
30308;DHT22;17114;52.314;8.910;2023-08-06T00:47:43;14.50;99.90
30308;DHT22;17114;52.314;8.910;2023-08-06T00:50:10;14.50;99.90
30308;DHT22;17114;52.314;8.910;2023-08-06T00:52:37;14.50;99.90
30308;DHT22;17114;52.314;8.910;2023-08-06T00:55:05;14.50;99.90
30308;DHT22;17114;52.314;8.910;2023-08-06T00:57:33;14.50;99.90
30308;DHT22;17114;52.314;8.910;2023-08-06T01:00:00;14.40;99.90
30308;DHT22;17114;52.314;8.910;2023-08-06T01:02:27;14.40;99.90
30308;DHT22;17114;52.314;8.910;2023-08-06T01:04:54;14.40;99.90
30308;DHT22;17114;52.314;8.910;2023-08-06T01:07:26;14.30;99.90
30308;DHT22;17114;52.314;8.910;2023-08-06T01:10:14;14.30;99.90
30308;DHT22;17114;52.314;8.910;2023-08-06T01:13:04;14.20;99.90
30308;DHT22;17114;52.314;8.910;2023-08-06T01:15:41;14.20;99.90
30308;DHT22;17114;52.314;8.910;2023-08-06T01:18:08;14.20;99.90
30308;DHT22;17114;52.314;8.910;2023-08-06T01:20:35;14.20;99.90
30308;DHT22;17114;52.314;8.910;2023-08-06T01:23:02;14.20;99.90
30308;DHT22;17114;52.314;8.910;2023-08-06T01:29:18;14.20;99.90
30308;DHT22;17114;52.314;8.910;2023-08-06T01:31:30;14.20;99.90
30308;DHT22;17114;52.314;8.910;2023-08-06T01:33:59;14.30;99.90
30308;DHT22;17114;52.314;8.910;2023-08-06T01:36:28;14.30;99.90
30308;DHT22;17114;52.314;8.910;2023-08-06T01:38:55;14.30;99.90
30308;DHT22;17114;52.314;8.910;2023-08-06T01:41:22;14.20;99.90
30308;DHT22;17114;52.314;8.910;2023-08-06T01:43:49;14.30;99.90
30308;DHT22;17114;52.314;8.910;2023-08-06T01:46:16;14.20;99.90
30308;DHT22;17114;52.314;8.910;2023-08-06T01:48:44;14.20;99.90
30308;DHT22;17114;52.314;8.910;2023-08-06T01:51:11;14.20;99.90
30308;DHT22;17114;52.314;8.910;2023-08-06T01:53:38;14.20;99.90
30308;DHT22;17114;52.314;8.910;2023-08-06T01:56:05;14.20;99.90
30308;DHT22;17114;52.314;8.910;2023-08-06T01:58:33;14.30;99.90
30308;DHT22;17114;52.314;8.910;2023-08-06T02:01:01;14.30;99.90
30308;DHT22;17114;52.314;8.910;2023-08-06T02:03:28;14.30;99.90
30308;DHT22;17114;52.314;8.910;2023-08-06T02:05:56;14.30;99.90
30308;DHT22;17114;52.314;8.910;2023-08-06T02:08:23;14.30;99.90
30308;DHT22;17114;52.314;8.910;2023-08-06T02:10:50;14.30;99.90
30308;DHT22;17114;52.314;8.910;2023-08-06T02:13:17;14.40;99.90
30308;DHT22;17114;52.314;8.910;2023-08-06T02:15:45;14.30;99.90
30308;DHT22;17114;52.314;8.910;2023-08-06T02:18:14;14.40;99.90
30308;DHT22;17114;52.314;8.910;2023-08-06T02:20:42;14.40;99.90
30308;DHT22;17114;52.314;8.910;2023-08-06T02:23:09;14.40;99.90
30308;DHT22;17114;52.314;8.910;2023-08-06T02:25:36;14.40;99.90
30308;DHT22;17114;52.314;8.910;2023-08-06T02:28:03;14.40;99.90
30308;DHT22;17114;52.314;8.910;2023-08-06T02:30:30;14.30;99.90
30308;DHT22;17114;52.314;8.910;2023-08-06T02:32:57;14.40;99.90
30308;DHT22;17114;52.314;8.910;2023-08-06T02:35:24;14.40;99.90
30308;DHT22;17114;52.314;8.910;2023-08-06T02:37:51;14.40;99.90
30308;DHT22;17114;52.314;8.910;2023-08-06T02:40:18;14.40;99.90
30308;DHT22;17114;52.314;8.910;2023-08-06T02:42:45;14.40;99.90
30308;DHT22;17114;52.314;8.910;2023-08-06T02:45:12;14.30;99.90
30308;DHT22;17114;52.314;8.910;2023-08-06T02:47:39;14.30;99.90
30308;DHT22;17114;52.314;8.910;2023-08-06T02:50:07;14.30;99.90
30308;DHT22;17114;52.314;8.910;2023-08-06T02:52:34;14.20;99.90
30308;DHT22;17114;52.314;8.910;2023-08-06T02:55:01;14.20;99.90
30308;DHT22;17114;52.314;8.910;2023-08-06T02:57:28;14.10;99.90
30308;DHT22;17114;52.314;8.910;2023-08-06T02:59:55;14.10;99.90
30308;DHT22;17114;52.314;8.910;2023-08-06T03:02:22;14.10;99.90
30308;DHT22;17114;52.314;8.910;2023-08-06T03:04:49;14.10;99.90
30308;DHT22;17114;52.314;8.910;2023-08-06T03:07:16;14.00;99.90
30308;DHT22;17114;52.314;8.910;2023-08-06T03:09:43;14.00;99.90
30308;DHT22;17114;52.314;8.910;2023-08-06T03:12:10;13.90;99.90
30308;DHT22;17114;52.314;8.910;2023-08-06T03:14:37;13.90;99.90
30308;DHT22;17114;52.314;8.910;2023-08-06T03:17:05;13.90;99.90
30308;DHT22;17114;52.314;8.910;2023-08-06T03:19:32;13.80;99.90
30308;DHT22;17114;52.314;8.910;2023-08-06T03:21:59;13.80;99.90
30308;DHT22;17114;52.314;8.910;2023-08-06T03:24:27;13.70;99.90
30308;DHT22;17114;52.314;8.910;2023-08-06T03:26:55;13.70;99.90
30308;DHT22;17114;52.314;8.910;2023-08-06T03:29:24;13.70;99.90
30308;DHT22;17114;52.314;8.910;2023-08-06T03:31:52;13.60;99.90
30308;DHT22;17114;52.314;8.910;2023-08-06T03:34:19;13.60;99.90
30308;DHT22;17114;52.314;8.910;2023-08-06T03:36:46;13.60;99.90
30308;DHT22;17114;52.314;8.910;2023-08-06T03:39:13;13.50;99.90
30308;DHT22;17114;52.314;8.910;2023-08-06T03:41:40;13.50;99.90
30308;DHT22;17114;52.314;8.910;2023-08-06T03:44:07;13.40;99.90
30308;DHT22;17114;52.314;8.910;2023-08-06T03:46:34;13.40;99.90
30308;DHT22;17114;52.314;8.910;2023-08-06T03:49:02;13.30;99.90
30308;DHT22;17114;52.314;8.910;2023-08-06T03:51:29;13.20;99.90
30308;DHT22;17114;52.314;8.910;2023-08-06T03:53:56;13.20;99.90
30308;DHT22;17114;52.314;8.910;2023-08-06T03:56:23;13.10;99.90
30308;DHT22;17114;52.314;8.910;2023-08-06T03:58:50;13.10;99.90
30308;DHT22;17114;52.314;8.910;2023-08-06T04:01:17;13.10;99.90
30308;DHT22;17114;52.314;8.910;2023-08-06T04:03:44;13.10;99.90
30308;DHT22;17114;52.314;8.910;2023-08-06T04:06:11;13.10;99.90
30308;DHT22;17114;52.314;8.910;2023-08-06T04:08:38;13.10;99.90
30308;DHT22;17114;52.314;8.910;2023-08-06T04:11:05;13.10;99.90
30308;DHT22;17114;52.314;8.910;2023-08-06T04:13:32;13.10;99.90
30308;DHT22;17114;52.314;8.910;2023-08-06T04:16:03;13.10;99.90
30308;DHT22;17114;52.314;8.910;2023-08-06T04:18:30;13.10;99.90
30308;DHT22;17114;52.314;8.910;2023-08-06T04:20:57;13.10;99.90
30308;DHT22;17114;52.314;8.910;2023-08-06T04:23:24;13.10;99.90
30308;DHT22;17114;52.314;8.910;2023-08-06T04:25:51;13.10;99.90
30308;DHT22;17114;52.314;8.910;2023-08-06T04:28:19;13.10;99.90
30308;DHT22;17114;52.314;8.910;2023-08-06T04:30:46;13.10;99.90
30308;DHT22;17114;52.314;8.910;2023-08-06T04:33:13;13.10;99.90
30308;DHT22;17114;52.314;8.910;2023-08-06T04:35:40;13.10;99.90
30308;DHT22;17114;52.314;8.910;2023-08-06T04:38:07;13.20;99.90
30308;DHT22;17114;52.314;8.910;2023-08-06T04:40:35;13.20;99.90
30308;DHT22;17114;52.314;8.910;2023-08-06T04:43:02;13.30;99.90
30308;DHT22;17114;52.314;8.910;2023-08-06T04:45:29;13.40;99.90
30308;DHT22;17114;52.314;8.910;2023-08-06T04:47:56;13.40;99.90
30308;DHT22;17114;52.314;8.910;2023-08-06T04:50:24;13.40;99.90
30308;DHT22;17114;52.314;8.910;2023-08-06T04:52:51;13.50;99.90
30308;DHT22;17114;52.314;8.910;2023-08-06T04:55:18;13.50;99.90
30308;DHT22;17114;52.314;8.910;2023-08-06T04:57:45;13.60;99.90
30308;DHT22;17114;52.314;8.910;2023-08-06T05:00:12;13.70;99.90
30308;DHT22;17114;52.314;8.910;2023-08-06T05:02:40;13.80;99.90
30308;DHT22;17114;52.314;8.910;2023-08-06T05:05:07;13.90;99.90
30308;DHT22;17114;52.314;8.910;2023-08-06T05:07:34;14.10;99.90
30308;DHT22;17114;52.314;8.910;2023-08-06T05:10:01;14.30;99.90
30308;DHT22;17114;52.314;8.910;2023-08-06T05:12:29;14.60;99.90
30308;DHT22;17114;52.314;8.910;2023-08-06T05:14:57;14.80;99.90
30308;DHT22;17114;52.314;8.910;2023-08-06T05:17:24;14.90;99.90
30308;DHT22;17114;52.314;8.910;2023-08-06T05:19:51;15.10;99.90
30308;DHT22;17114;52.314;8.910;2023-08-06T05:25:08;15.40;99.90
30308;DHT22;17114;52.314;8.910;2023-08-06T05:27:35;15.40;99.90
30308;DHT22;17114;52.314;8.910;2023-08-06T05:30:04;15.50;99.90
30308;DHT22;17114;52.314;8.910;2023-08-06T05:32:31;15.60;99.90
30308;DHT22;17114;52.314;8.910;2023-08-06T05:34:58;15.80;99.90
30308;DHT22;17114;52.314;8.910;2023-08-06T05:37:25;16.10;99.90
30308;DHT22;17114;52.314;8.910;2023-08-06T05:39:51;16.50;99.90
30308;DHT22;17114;52.314;8.910;2023-08-06T05:42:18;17.00;99.90
30308;DHT22;17114;52.314;8.910;2023-08-06T05:44:45;17.30;99.90
30308;DHT22;17114;52.314;8.910;2023-08-06T05:47:12;17.70;99.90
30308;DHT22;17114;52.314;8.910;2023-08-06T05:49:39;18.20;99.90
30308;DHT22;17114;52.314;8.910;2023-08-06T05:52:06;18.90;99.90
30308;DHT22;17114;52.314;8.910;2023-08-06T05:54:35;19.10;99.90
30308;DHT22;17114;52.314;8.910;2023-08-06T05:57:02;19.50;99.90
30308;DHT22;17114;52.314;8.910;2023-08-06T05:59:29;19.50;99.90
30308;DHT22;17114;52.314;8.910;2023-08-06T06:01:56;19.30;99.90
30308;DHT22;17114;52.314;8.910;2023-08-06T06:04:22;19.00;99.90
30308;DHT22;17114;52.314;8.910;2023-08-06T06:06:49;18.80;99.90
30308;DHT22;17114;52.314;8.910;2023-08-06T06:09:16;18.60;99.90
30308;DHT22;17114;52.314;8.910;2023-08-06T06:11:43;18.40;99.90
30308;DHT22;17114;52.314;8.910;2023-08-06T06:14:10;18.30;99.90
30308;DHT22;17114;52.314;8.910;2023-08-06T06:16:37;18.20;99.90
30308;DHT22;17114;52.314;8.910;2023-08-06T06:19:04;18.10;99.90
30308;DHT22;17114;52.314;8.910;2023-08-06T06:21:31;18.00;99.90
30308;DHT22;17114;52.314;8.910;2023-08-06T06:23:57;18.10;99.90
30308;DHT22;17114;52.314;8.910;2023-08-06T06:26:24;18.50;99.90
30308;DHT22;17114;52.314;8.910;2023-08-06T06:28:51;18.90;99.90
30308;DHT22;17114;52.314;8.910;2023-08-06T06:31:18;19.30;99.90
30308;DHT22;17114;52.314;8.910;2023-08-06T06:33:45;19.70;99.90
30308;DHT22;17114;52.314;8.910;2023-08-06T06:36:12;20.20;99.90
30308;DHT22;17114;52.314;8.910;2023-08-06T06:38:39;21.00;99.90
30308;DHT22;17114;52.314;8.910;2023-08-06T06:41:06;21.50;99.90
30308;DHT22;17114;52.314;8.910;2023-08-06T06:43:33;21.90;99.90
30308;DHT22;17114;52.314;8.910;2023-08-06T06:46:00;22.20;99.90
30308;DHT22;17114;52.314;8.910;2023-08-06T06:48:31;22.70;99.90
30308;DHT22;17114;52.314;8.910;2023-08-06T06:50:58;22.80;99.90
30308;DHT22;17114;52.314;8.910;2023-08-06T06:53:25;23.00;99.90
30308;DHT22;17114;52.314;8.910;2023-08-06T06:56:00;23.20;99.90
30308;DHT22;17114;52.314;8.910;2023-08-06T06:58:28;23.20;99.90
30308;DHT22;17114;52.314;8.910;2023-08-06T07:00:54;23.50;99.90
30308;DHT22;17114;52.314;8.910;2023-08-06T07:03:21;23.60;99.90
30308;DHT22;17114;52.314;8.910;2023-08-06T07:05:49;23.50;99.90
30308;DHT22;17114;52.314;8.910;2023-08-06T07:08:16;23.50;99.90
30308;DHT22;17114;52.314;8.910;2023-08-06T07:10:43;24.00;99.90
30308;DHT22;17114;52.314;8.910;2023-08-06T07:13:10;24.30;99.90
30308;DHT22;17114;52.314;8.910;2023-08-06T07:15:37;24.70;99.90
30308;DHT22;17114;52.314;8.910;2023-08-06T07:18:04;24.50;99.90
30308;DHT22;17114;52.314;8.910;2023-08-06T07:20:31;23.60;99.90
30308;DHT22;17114;52.314;8.910;2023-08-06T07:23:00;23.00;99.90
30308;DHT22;17114;52.314;8.910;2023-08-06T07:25:28;22.90;99.90
30308;DHT22;17114;52.314;8.910;2023-08-06T07:27:54;23.40;99.90
30308;DHT22;17114;52.314;8.910;2023-08-06T07:30:23;23.70;99.90
30308;DHT22;17114;52.314;8.910;2023-08-06T07:32:50;24.50;99.90
30308;DHT22;17114;52.314;8.910;2023-08-06T07:35:17;25.20;99.90
30308;DHT22;17114;52.314;8.910;2023-08-06T07:37:43;25.60;99.90
30308;DHT22;17114;52.314;8.910;2023-08-06T07:40:11;25.70;99.90
30308;DHT22;17114;52.314;8.910;2023-08-06T07:42:38;25.70;99.90
30308;DHT22;17114;52.314;8.910;2023-08-06T07:45:05;25.60;99.90
30308;DHT22;17114;52.314;8.910;2023-08-06T07:47:32;25.90;99.90
30308;DHT22;17114;52.314;8.910;2023-08-06T07:49:59;25.90;99.90
30308;DHT22;17114;52.314;8.910;2023-08-06T07:52:26;25.90;99.90
30308;DHT22;17114;52.314;8.910;2023-08-06T07:54:53;25.90;99.90
30308;DHT22;17114;52.314;8.910;2023-08-06T07:57:19;26.00;99.90
30308;DHT22;17114;52.314;8.910;2023-08-06T07:59:46;25.60;99.90
30308;DHT22;17114;52.314;8.910;2023-08-06T08:02:13;25.80;99.90
30308;DHT22;17114;52.314;8.910;2023-08-06T08:04:40;25.90;99.90
30308;DHT22;17114;52.314;8.910;2023-08-06T08:07:09;25.90;99.90
30308;DHT22;17114;52.314;8.910;2023-08-06T08:09:36;25.70;99.90
30308;DHT22;17114;52.314;8.910;2023-08-06T08:12:03;25.50;99.90
30308;DHT22;17114;52.314;8.910;2023-08-06T08:14:30;25.80;99.90
30308;DHT22;17114;52.314;8.910;2023-08-06T08:17:03;26.20;99.90
30308;DHT22;17114;52.314;8.910;2023-08-06T08:19:30;26.40;99.90
30308;DHT22;17114;52.314;8.910;2023-08-06T08:21:57;26.60;99.90
30308;DHT22;17114;52.314;8.910;2023-08-06T08:24:25;27.00;99.90
30308;DHT22;17114;52.314;8.910;2023-08-06T08:26:52;27.10;99.90
30308;DHT22;17114;52.314;8.910;2023-08-06T08:29:20;27.60;99.90
30308;DHT22;17114;52.314;8.910;2023-08-06T08:31:48;27.80;99.90
30308;DHT22;17114;52.314;8.910;2023-08-06T08:34:19;28.20;99.90
30308;DHT22;17114;52.314;8.910;2023-08-06T08:36:48;28.50;99.90
30308;DHT22;17114;52.314;8.910;2023-08-06T08:39:16;28.90;99.90
30308;DHT22;17114;52.314;8.910;2023-08-06T08:41:43;29.20;99.90
30308;DHT22;17114;52.314;8.910;2023-08-06T08:44:10;29.20;99.90
30308;DHT22;17114;52.314;8.910;2023-08-06T08:46:40;28.80;99.90
30308;DHT22;17114;52.314;8.910;2023-08-06T08:49:08;27.80;99.90
30308;DHT22;17114;52.314;8.910;2023-08-06T08:51:35;26.90;99.90
30308;DHT22;17114;52.314;8.910;2023-08-06T08:54:03;26.20;99.90
30308;DHT22;17114;52.314;8.910;2023-08-06T08:56:34;25.70;99.90
30308;DHT22;17114;52.314;8.910;2023-08-06T08:59:00;25.80;99.90
30308;DHT22;17114;52.314;8.910;2023-08-06T09:01:28;25.60;99.90
30308;DHT22;17114;52.314;8.910;2023-08-06T09:03:56;25.40;99.90
30308;DHT22;17114;52.314;8.910;2023-08-06T09:06:25;25.30;99.90
30308;DHT22;17114;52.314;8.910;2023-08-06T09:09:03;25.40;99.90
30308;DHT22;17114;52.314;8.910;2023-08-06T09:11:44;25.70;99.90
30308;DHT22;17114;52.314;8.910;2023-08-06T09:14:11;26.30;99.90
30308;DHT22;17114;52.314;8.910;2023-08-06T09:16:38;26.80;99.90
30308;DHT22;17114;52.314;8.910;2023-08-06T09:19:09;27.20;99.90
30308;DHT22;17114;52.314;8.910;2023-08-06T09:21:41;26.70;99.90
30308;DHT22;17114;52.314;8.910;2023-08-06T09:24:09;26.70;99.90
30308;DHT22;17114;52.314;8.910;2023-08-06T09:26:37;27.20;99.90
30308;DHT22;17114;52.314;8.910;2023-08-06T09:29:06;27.20;99.90
30308;DHT22;17114;52.314;8.910;2023-08-06T09:31:43;27.50;99.90
30308;DHT22;17114;52.314;8.910;2023-08-06T09:34:21;27.50;99.90
30308;DHT22;17114;52.314;8.910;2023-08-06T09:36:52;27.70;99.90
30308;DHT22;17114;52.314;8.910;2023-08-06T09:39:27;27.40;99.90
30308;DHT22;17114;52.314;8.910;2023-08-06T09:41:59;26.50;99.90
30308;DHT22;17114;52.314;8.910;2023-08-06T09:44:27;25.70;99.90
30308;DHT22;17114;52.314;8.910;2023-08-06T09:46:56;24.70;99.90
30308;DHT22;17114;52.314;8.910;2023-08-06T09:49:28;24.10;99.90
30308;DHT22;17114;52.314;8.910;2023-08-06T09:52:08;23.70;99.90
30308;DHT22;17114;52.314;8.910;2023-08-06T09:54:37;23.30;99.90
30308;DHT22;17114;52.314;8.910;2023-08-06T09:57:05;23.10;99.90
30308;DHT22;17114;52.314;8.910;2023-08-06T09:59:32;23.40;99.90
30308;DHT22;17114;52.314;8.910;2023-08-06T10:02:00;23.70;99.90
30308;DHT22;17114;52.314;8.910;2023-08-06T10:04:29;23.70;99.90
30308;DHT22;17114;52.314;8.910;2023-08-06T10:07:06;23.60;99.90
30308;DHT22;17114;52.314;8.910;2023-08-06T10:09:33;23.50;99.90
30308;DHT22;17114;52.314;8.910;2023-08-06T10:12:00;23.50;99.90
30308;DHT22;17114;52.314;8.910;2023-08-06T10:14:33;23.40;99.90
30308;DHT22;17114;52.314;8.910;2023-08-06T10:17:02;24.00;99.90
30308;DHT22;17114;52.314;8.910;2023-08-06T10:19:29;24.30;99.90
30308;DHT22;17114;52.314;8.910;2023-08-06T10:22:19;24.20;99.90
30308;DHT22;17114;52.314;8.910;2023-08-06T10:24:56;23.60;99.90
30308;DHT22;17114;52.314;8.910;2023-08-06T10:27:40;23.00;99.90
30308;DHT22;17114;52.314;8.910;2023-08-06T10:30:44;22.50;99.90
30308;DHT22;17114;52.314;8.910;2023-08-06T10:33:11;22.00;99.90
30308;DHT22;17114;52.314;8.910;2023-08-06T10:35:46;21.70;99.90
30308;DHT22;17114;52.314;8.910;2023-08-06T10:38:18;21.50;99.90
30308;DHT22;17114;52.314;8.910;2023-08-06T10:40:49;21.30;99.90
30308;DHT22;17114;52.314;8.910;2023-08-06T10:43:33;21.30;99.90
30308;DHT22;17114;52.314;8.910;2023-08-06T10:46:02;21.30;99.90
30308;DHT22;17114;52.314;8.910;2023-08-06T10:48:40;21.20;99.90
30308;DHT22;17114;52.314;8.910;2023-08-06T10:51:11;21.10;99.90
30308;DHT22;17114;52.314;8.910;2023-08-06T10:53:43;21.00;99.90
30308;DHT22;17114;52.314;8.910;2023-08-06T10:56:18;20.90;99.90
30308;DHT22;17114;52.314;8.910;2023-08-06T10:58:45;21.00;99.90
30308;DHT22;17114;52.314;8.910;2023-08-06T11:01:12;20.90;99.90
30308;DHT22;17114;52.314;8.910;2023-08-06T11:03:41;20.80;99.90
30308;DHT22;17114;52.314;8.910;2023-08-06T11:06:08;20.80;99.90
30308;DHT22;17114;52.314;8.910;2023-08-06T11:08:37;20.80;99.90
30308;DHT22;17114;52.314;8.910;2023-08-06T11:11:15;20.80;99.90
30308;DHT22;17114;52.314;8.910;2023-08-06T11:13:49;20.70;99.90
30308;DHT22;17114;52.314;8.910;2023-08-06T11:16:18;20.70;99.90
30308;DHT22;17114;52.314;8.910;2023-08-06T11:18:45;20.80;99.90
30308;DHT22;17114;52.314;8.910;2023-08-06T11:21:12;20.60;99.90
30308;DHT22;17114;52.314;8.910;2023-08-06T11:23:40;20.40;99.90
30308;DHT22;17114;52.314;8.910;2023-08-06T11:26:08;20.40;99.90
30308;DHT22;17114;52.314;8.910;2023-08-06T11:28:35;20.30;99.90
30308;DHT22;17114;52.314;8.910;2023-08-06T11:31:02;20.40;99.90
30308;DHT22;17114;52.314;8.910;2023-08-06T11:33:30;20.30;99.90
30308;DHT22;17114;52.314;8.910;2023-08-06T11:35:59;20.40;99.90
30308;DHT22;17114;52.314;8.910;2023-08-06T11:38:28;20.30;99.90
30308;DHT22;17114;52.314;8.910;2023-08-06T11:40:55;20.30;99.90
30308;DHT22;17114;52.314;8.910;2023-08-06T11:43:22;20.30;99.90
30308;DHT22;17114;52.314;8.910;2023-08-06T11:45:50;20.40;99.90
30308;DHT22;17114;52.314;8.910;2023-08-06T11:48:17;20.40;99.90
30308;DHT22;17114;52.314;8.910;2023-08-06T11:50:45;20.60;99.90
30308;DHT22;17114;52.314;8.910;2023-08-06T11:53:13;20.70;99.90
30308;DHT22;17114;52.314;8.910;2023-08-06T11:55:42;20.70;99.90
30308;DHT22;17114;52.314;8.910;2023-08-06T11:58:10;20.60;99.90
30308;DHT22;17114;52.314;8.910;2023-08-06T12:00:42;20.60;99.90
30308;DHT22;17114;52.314;8.910;2023-08-06T12:03:10;20.50;99.90
30308;DHT22;17114;52.314;8.910;2023-08-06T12:05:37;20.50;99.90
30308;DHT22;17114;52.314;8.910;2023-08-06T12:08:05;20.60;99.90
30308;DHT22;17114;52.314;8.910;2023-08-06T12:10:32;20.60;99.90
30308;DHT22;17114;52.314;8.910;2023-08-06T12:13:00;20.70;99.90
30308;DHT22;17114;52.314;8.910;2023-08-06T12:15:27;20.80;99.90
30308;DHT22;17114;52.314;8.910;2023-08-06T12:17:55;21.00;99.90
30308;DHT22;17114;52.314;8.910;2023-08-06T12:20:22;21.00;99.90
30308;DHT22;17114;52.314;8.910;2023-08-06T12:22:49;21.00;99.90
30308;DHT22;17114;52.314;8.910;2023-08-06T12:25:16;21.20;99.90
30308;DHT22;17114;52.314;8.910;2023-08-06T12:27:45;21.40;99.90
30308;DHT22;17114;52.314;8.910;2023-08-06T12:30:13;21.50;99.90
30308;DHT22;17114;52.314;8.910;2023-08-06T12:32:40;21.50;99.90
30308;DHT22;17114;52.314;8.910;2023-08-06T12:35:08;21.50;99.90
30308;DHT22;17114;52.314;8.910;2023-08-06T12:37:35;21.50;99.90
30308;DHT22;17114;52.314;8.910;2023-08-06T12:40:02;21.50;99.90
30308;DHT22;17114;52.314;8.910;2023-08-06T12:42:53;21.60;99.90
30308;DHT22;17114;52.314;8.910;2023-08-06T12:45:20;21.70;99.90
30308;DHT22;17114;52.314;8.910;2023-08-06T12:47:49;21.60;99.90
30308;DHT22;17114;52.314;8.910;2023-08-06T12:50:17;21.60;99.90
30308;DHT22;17114;52.314;8.910;2023-08-06T12:52:44;21.50;99.90
30308;DHT22;17114;52.314;8.910;2023-08-06T12:55:11;21.40;99.90
30308;DHT22;17114;52.314;8.910;2023-08-06T12:57:38;21.40;99.90
30308;DHT22;17114;52.314;8.910;2023-08-06T13:00:21;21.50;99.90
30308;DHT22;17114;52.314;8.910;2023-08-06T13:02:48;21.70;99.90
30308;DHT22;17114;52.314;8.910;2023-08-06T13:05:15;21.80;99.90
30308;DHT22;17114;52.314;8.910;2023-08-06T13:07:42;22.00;99.90
30308;DHT22;17114;52.314;8.910;2023-08-06T13:10:09;22.40;99.90
30308;DHT22;17114;52.314;8.910;2023-08-06T13:12:35;22.70;99.90
30308;DHT22;17114;52.314;8.910;2023-08-06T13:15:02;22.80;99.90
30308;DHT22;17114;52.314;8.910;2023-08-06T13:17:32;23.00;99.90
30308;DHT22;17114;52.314;8.910;2023-08-06T13:19:59;23.30;99.90
30308;DHT22;17114;52.314;8.910;2023-08-06T13:22:25;23.20;99.90
30308;DHT22;17114;52.314;8.910;2023-08-06T13:24:52;22.90;99.90
30308;DHT22;17114;52.314;8.910;2023-08-06T13:27:19;22.70;99.90
30308;DHT22;17114;52.314;8.910;2023-08-06T13:29:46;22.50;99.90
30308;DHT22;17114;52.314;8.910;2023-08-06T13:32:14;22.40;99.90
30308;DHT22;17114;52.314;8.910;2023-08-06T13:34:41;22.30;99.90
30308;DHT22;17114;52.314;8.910;2023-08-06T13:37:08;22.30;99.90
30308;DHT22;17114;52.314;8.910;2023-08-06T13:39:34;22.50;99.90
30308;DHT22;17114;52.314;8.910;2023-08-06T13:42:01;22.90;99.90
30308;DHT22;17114;52.314;8.910;2023-08-06T13:44:28;23.20;99.90
30308;DHT22;17114;52.314;8.910;2023-08-06T13:46:55;23.60;99.90
30308;DHT22;17114;52.314;8.910;2023-08-06T13:49:23;23.50;99.90
30308;DHT22;17114;52.314;8.910;2023-08-06T13:51:49;23.40;99.90
30308;DHT22;17114;52.314;8.910;2023-08-06T13:54:16;23.10;99.90
30308;DHT22;17114;52.314;8.910;2023-08-06T13:56:43;22.70;99.90
30308;DHT22;17114;52.314;8.910;2023-08-06T13:59:10;22.40;99.90
30308;DHT22;17114;52.314;8.910;2023-08-06T14:01:40;22.20;99.90
30308;DHT22;17114;52.314;8.910;2023-08-06T14:04:17;21.90;99.90
30308;DHT22;17114;52.314;8.910;2023-08-06T14:06:44;21.60;99.90
30308;DHT22;17114;52.314;8.910;2023-08-06T14:09:11;21.30;99.90
30308;DHT22;17114;52.314;8.910;2023-08-06T14:11:40;21.20;99.90
30308;DHT22;17114;52.314;8.910;2023-08-06T14:14:07;21.20;99.90
30308;DHT22;17114;52.314;8.910;2023-08-06T14:16:34;21.20;99.90
30308;DHT22;17114;52.314;8.910;2023-08-06T14:19:01;21.20;99.90
30308;DHT22;17114;52.314;8.910;2023-08-06T14:21:28;21.30;99.90
30308;DHT22;17114;52.314;8.910;2023-08-06T14:23:55;21.50;99.90
30308;DHT22;17114;52.314;8.910;2023-08-06T14:26:22;21.50;99.90
30308;DHT22;17114;52.314;8.910;2023-08-06T14:28:49;21.60;99.90
30308;DHT22;17114;52.314;8.910;2023-08-06T14:31:21;21.50;99.90
30308;DHT22;17114;52.314;8.910;2023-08-06T14:33:48;21.50;99.90
30308;DHT22;17114;52.314;8.910;2023-08-06T14:36:15;21.60;99.90
30308;DHT22;17114;52.314;8.910;2023-08-06T14:38:41;21.70;99.90
30308;DHT22;17114;52.314;8.910;2023-08-06T14:41:23;21.80;99.90
30308;DHT22;17114;52.314;8.910;2023-08-06T14:43:51;21.90;99.90
30308;DHT22;17114;52.314;8.910;2023-08-06T14:46:18;21.90;99.90
30308;DHT22;17114;52.314;8.910;2023-08-06T14:48:45;21.80;99.90
30308;DHT22;17114;52.314;8.910;2023-08-06T14:51:12;21.80;99.90
30308;DHT22;17114;52.314;8.910;2023-08-06T14:53:39;21.70;99.90
30308;DHT22;17114;52.314;8.910;2023-08-06T14:56:06;21.60;99.90
30308;DHT22;17114;52.314;8.910;2023-08-06T14:58:32;21.50;99.90
30308;DHT22;17114;52.314;8.910;2023-08-06T15:00:59;21.30;99.90
30308;DHT22;17114;52.314;8.910;2023-08-06T15:03:26;21.20;99.90
30308;DHT22;17114;52.314;8.910;2023-08-06T15:05:54;20.90;99.90
30308;DHT22;17114;52.314;8.910;2023-08-06T15:08:21;20.70;99.90
30308;DHT22;17114;52.314;8.910;2023-08-06T15:10:54;20.40;99.90
30308;DHT22;17114;52.314;8.910;2023-08-06T15:13:21;20.20;99.90
30308;DHT22;17114;52.314;8.910;2023-08-06T15:15:49;19.80;99.90
30308;DHT22;17114;52.314;8.910;2023-08-06T15:18:16;19.70;99.90
30308;DHT22;17114;52.314;8.910;2023-08-06T15:20:43;19.50;99.90
30308;DHT22;17114;52.314;8.910;2023-08-06T15:23:10;19.40;99.90
30308;DHT22;17114;52.314;8.910;2023-08-06T15:25:37;19.30;99.90
30308;DHT22;17114;52.314;8.910;2023-08-06T15:28:04;19.20;99.90
30308;DHT22;17114;52.314;8.910;2023-08-06T15:30:33;19.20;99.90
30308;DHT22;17114;52.314;8.910;2023-08-06T15:33:01;19.20;99.90
30308;DHT22;17114;52.314;8.910;2023-08-06T15:35:28;19.20;99.90
30308;DHT22;17114;52.314;8.910;2023-08-06T15:37:55;19.20;99.90
30308;DHT22;17114;52.314;8.910;2023-08-06T15:40:22;19.30;99.90
30308;DHT22;17114;52.314;8.910;2023-08-06T15:42:49;19.20;99.90